createdAt,value
2018-09-03T00:00:01.822Z,92391.11
2018-09-03T00:02:38.523Z,92394.07
2018-09-03T00:05:14.255Z,92391.27
2018-09-03T00:07:50.185Z,92388.48
2018-09-03T00:10:26.558Z,92386.81
2018-09-03T00:13:02.433Z,92382.69
2018-09-03T00:15:38.509Z,92376.94
2018-09-03T00:18:14.422Z,92375.42
2018-09-03T00:20:50.059Z,92379.00
2018-09-03T00:23:25.858Z,92384.63
2018-09-03T00:26:02.449Z,92378.06
2018-09-03T00:28:40.290Z,92380.20
2018-09-03T00:31:20.990Z,92378.30
2018-09-03T00:34:01.952Z,92378.53
2018-09-03T00:36:42.760Z,92376.27
2018-09-03T00:39:25.283Z,92380.66
2018-09-03T00:42:06.380Z,92370.98
2018-09-03T00:44:47.174Z,92379.43
2018-09-03T00:47:23.104Z,92374.59
2018-09-03T00:49:59.116Z,92364.28
2018-09-03T00:52:34.783Z,92366.41
2018-09-03T00:55:13.158Z,92370.23
2018-09-03T00:57:50.367Z,92369.15
2018-09-03T01:00:26.292Z,92372.72
2018-09-03T01:03:02.336Z,92367.58
2018-09-03T01:05:38.186Z,92367.31
2018-09-03T01:08:14.381Z,92355.69
2018-09-03T01:10:51.105Z,92358.58
2018-09-03T01:13:27.020Z,92358.41
2018-09-03T01:16:03.154Z,92365.05
2018-09-03T01:18:42.354Z,92362.36
2018-09-03T01:21:19.713Z,92370.06
2018-09-03T01:23:55.954Z,92367.69
2018-09-03T01:26:31.697Z,92365.17
2018-09-03T01:29:08.593Z,92358.97
2018-09-03T01:31:44.361Z,92362.13
2018-09-03T01:34:20.522Z,92358.88
2018-09-03T01:36:56.327Z,92365.78
2018-09-03T01:39:35.601Z,92366.34
2018-09-03T01:42:11.648Z,92362.52
2018-09-03T01:44:47.489Z,92362.27
2018-09-03T01:47:24.374Z,92366.06
2018-09-03T01:50:00.342Z,92369.27
2018-09-03T01:52:36.172Z,92371.30
2018-09-03T01:55:14.242Z,92367.08
2018-09-03T01:57:50.966Z,92361.77
2018-09-03T02:00:26.686Z,92352.61
2018-09-03T02:03:05.408Z,92354.94
2018-09-03T02:05:41.169Z,92352.17
2018-09-03T02:08:17.090Z,92356.44
2018-09-03T02:10:53.797Z,92351.91
2018-09-03T02:13:30.570Z,92349.85
2018-09-03T02:16:06.437Z,92343.80
2018-09-03T02:18:42.348Z,92341.27
2018-09-03T02:21:18.032Z,92349.45
2018-09-03T02:23:53.807Z,92348.36
2018-09-03T02:26:31.187Z,92353.78
2018-09-03T02:29:07.179Z,92350.73
2018-09-03T02:31:43.117Z,92350.04
2018-09-03T02:34:18.910Z,92347.55
2018-09-03T02:36:57.350Z,92355.84
2018-09-03T02:39:35.624Z,92355.63
2018-09-03T02:42:11.670Z,92353.00
2018-09-03T02:44:49.987Z,92346.73
2018-09-03T02:47:25.686Z,92344.90
2018-09-03T02:50:01.759Z,92337.55
2018-09-03T02:52:37.988Z,92338.01
2018-09-03T02:55:14.086Z,92341.14
2018-09-03T02:57:50.519Z,92338.48
2018-09-03T03:00:26.841Z,92337.28
2018-09-03T03:03:02.992Z,92340.77
2018-09-03T03:05:38.783Z,92331.38
2018-09-03T03:08:14.554Z,92331.75
2018-09-03T03:10:50.847Z,92335.59
2018-09-03T03:13:26.436Z,92332.79
2018-09-03T03:16:02.242Z,92335.30
2018-09-03T03:18:38.097Z,92339.08
2018-09-03T03:21:14.339Z,92333.20
2018-09-03T03:23:50.082Z,92328.67
2018-09-03T03:26:25.959Z,92323.91
2018-09-03T03:29:02.085Z,92328.73
2018-09-03T03:31:39.463Z,92323.13
2018-09-03T03:34:16.087Z,92321.91
2018-09-03T03:36:51.849Z,92326.20
2018-09-03T03:39:28.502Z,92327.33
2018-09-03T03:42:04.287Z,92322.08
2018-09-03T03:44:40.203Z,92333.76
2018-09-03T03:47:16.659Z,92330.31
2018-09-03T03:49:53.889Z,92333.93
2018-09-03T03:52:30.658Z,92321.72
2018-09-03T03:55:07.564Z,92322.42
2018-09-03T03:57:44.309Z,92327.69
2018-09-03T04:00:26.618Z,92328.16
2018-09-03T04:03:02.965Z,92326.81
2018-09-03T04:05:38.855Z,92332.27
2018-09-03T04:08:14.712Z,92334.97
2018-09-03T04:10:50.493Z,92335.83
2018-09-03T04:13:28.158Z,92325.73
2018-09-03T04:16:03.874Z,92328.22
2018-09-03T04:18:40.239Z,92330.18
2018-09-03T04:21:16.563Z,92324.71
2018-09-03T04:23:52.248Z,92326.64
2018-09-03T04:26:28.087Z,92316.82
2018-09-03T04:29:03.890Z,92315.44
2018-09-03T04:31:42.374Z,92311.75
2018-09-03T04:34:18.486Z,92306.76
2018-09-03T04:36:54.209Z,92314.16
2018-09-03T04:39:31.249Z,92317.11
2018-09-03T04:42:07.145Z,92322.11
2018-09-03T04:44:42.986Z,92313.13
2018-09-03T04:47:19.250Z,92311.78
2018-09-03T04:49:54.981Z,92304.56
2018-09-03T04:52:31.071Z,92306.22
2018-09-03T04:55:07.899Z,92305.26
2018-09-03T04:57:43.869Z,92294.77
2018-09-03T05:00:20.700Z,92304.01
2018-09-03T05:02:56.466Z,92295.73
2018-09-03T05:05:33.358Z,92290.03
2018-09-03T05:08:09.976Z,92297.97
2018-09-03T05:10:45.728Z,92297.83
2018-09-03T05:13:21.753Z,92295.52
2018-09-03T05:15:57.561Z,92291.15
2018-09-03T05:18:33.408Z,92289.64
2018-09-03T05:21:09.787Z,92291.83
2018-09-03T05:23:45.499Z,92288.75
2018-09-03T05:26:21.463Z,92298.50
2018-09-03T05:28:57.243Z,92296.63
2018-09-03T05:31:33.725Z,92299.95
2018-09-03T05:34:10.338Z,92300.52
2018-09-03T05:36:46.043Z,92298.88
2018-09-03T05:39:22.832Z,92292.94
2018-09-03T05:41:58.741Z,92285.30
2018-09-03T05:44:34.512Z,92293.42
2018-09-03T05:47:10.496Z,92292.98
2018-09-03T05:49:46.118Z,92286.58
2018-09-03T05:52:22.205Z,92290.31
2018-09-03T05:54:58.300Z,92287.31
2018-09-03T05:57:33.968Z,92280.16
2018-09-03T06:00:09.744Z,92283.72
2018-09-03T06:02:45.419Z,92287.92
2018-09-03T06:05:21.219Z,92283.58
2018-09-03T06:07:57.214Z,92283.77
2018-09-03T06:10:33.073Z,92276.50
2018-09-03T06:13:09.046Z,92274.41
2018-09-03T06:15:45.013Z,92279.60
2018-09-03T06:18:20.886Z,92280.42
2018-09-03T06:20:51.870Z,92279.59
2018-09-03T06:23:22.885Z,92275.09
2018-09-03T06:25:53.777Z,92271.02
2018-09-03T06:28:24.592Z,92277.49
2018-09-03T06:30:55.526Z,92276.44
2018-09-03T06:33:26.548Z,92274.52
2018-09-03T06:35:57.479Z,92274.33
2018-09-03T06:38:28.542Z,92274.29
2018-09-03T06:40:59.679Z,92281.38
2018-09-03T06:43:30.495Z,92285.27
2018-09-03T06:46:01.271Z,92281.16
2018-09-03T06:48:32.082Z,92279.66
2018-09-03T06:51:03.703Z,92280.77
2018-09-03T06:53:34.617Z,92272.28
2018-09-03T06:56:05.602Z,92269.23
2018-09-03T06:58:36.519Z,92262.59
2018-09-03T07:01:07.363Z,92258.48
2018-09-03T07:03:38.344Z,92265.21
2018-09-03T07:06:09.963Z,92257.77
2018-09-03T07:08:44.125Z,92260.42
2018-09-03T07:11:14.929Z,92256.13
2018-09-03T07:13:45.878Z,92257.78
2018-09-03T07:16:16.678Z,92250.86
2018-09-03T07:18:47.664Z,92250.06
2018-09-03T07:21:18.858Z,92248.91
2018-09-03T07:23:49.735Z,92243.52
2018-09-03T07:26:20.677Z,92235.36
2018-09-03T07:28:52.027Z,92237.05
2018-09-03T07:31:22.956Z,92240.78
2018-09-03T07:33:54.053Z,92240.00
2018-09-03T07:36:24.881Z,92232.72
2018-09-03T07:38:56.104Z,92225.78
2018-09-03T07:41:26.952Z,92229.61
2018-09-03T07:43:57.829Z,92232.09
2018-09-03T07:46:31.404Z,92228.13
2018-09-03T07:49:02.308Z,92230.84
2018-09-03T07:51:33.302Z,92224.98
2018-09-03T07:54:04.213Z,92227.20
2018-09-03T07:56:35.236Z,92223.36
2018-09-03T07:59:06.271Z,92222.55
2018-09-03T08:01:37.185Z,92223.91
2018-09-03T08:04:08.112Z,92218.66
2018-09-03T08:06:39.153Z,92214.20
2018-09-03T08:09:11.384Z,92198.48
2018-09-03T08:11:42.174Z,92200.62
2018-09-03T08:14:13.078Z,92196.45
2018-09-03T08:16:43.911Z,92199.72
2018-09-03T08:19:14.796Z,92189.72
2018-09-03T08:21:45.614Z,92195.42
2018-09-03T08:24:19.304Z,92195.27
2018-09-03T08:26:50.378Z,92188.97
2018-09-03T08:29:21.210Z,92179.30
2018-09-03T08:31:52.093Z,92173.69
2018-09-03T08:34:23.549Z,92169.69
2018-09-03T08:36:54.927Z,92160.33
2018-09-03T08:39:25.959Z,92155.66
2018-09-03T08:41:56.750Z,92155.73
2018-09-03T08:44:27.602Z,92147.28
2018-09-03T08:46:58.796Z,92139.92
2018-09-03T08:49:36.597Z,92137.86
2018-09-03T08:52:07.524Z,92129.48
2018-09-03T08:54:38.415Z,92132.53
2018-09-03T08:57:09.233Z,92128.06
2018-09-03T08:59:40.096Z,92127.60
2018-09-03T09:02:15.380Z,92116.27
2018-09-03T09:04:46.196Z,92115.98
2018-09-03T09:07:17.388Z,92118.39
2018-09-03T09:09:51.740Z,92106.34
2018-09-03T09:12:22.553Z,92110.45
2018-09-03T09:14:53.389Z,92103.62
2018-09-03T09:17:24.251Z,92097.09
2018-09-03T09:19:57.986Z,92092.52
2018-09-03T09:22:28.851Z,92090.55
2018-09-03T09:24:59.762Z,92090.17
2018-09-03T09:27:30.879Z,92081.27
2018-09-03T09:30:01.750Z,92079.07
2018-09-03T09:32:33.183Z,92075.97
2018-09-03T09:35:04.599Z,92075.95
2018-09-03T09:37:35.829Z,92062.45
2018-09-03T09:40:07.957Z,92050.73
2018-09-03T09:42:40.570Z,92045.98
2018-09-03T09:45:12.514Z,92039.00
2018-09-03T09:47:43.280Z,92036.14
2018-09-03T09:50:14.497Z,92033.33
2018-09-03T09:52:45.304Z,92030.42
2018-09-03T09:55:16.266Z,92037.58
2018-09-03T09:57:47.781Z,92028.49
2018-09-03T10:00:23.721Z,92020.96
2018-09-03T10:02:54.550Z,92019.63
2018-09-03T10:05:25.413Z,92014.08
2018-09-03T10:07:56.972Z,92007.15
2018-09-03T10:10:28.129Z,92001.52
2018-09-03T10:12:59.119Z,92002.78
2018-09-03T10:15:29.968Z,91998.45
2018-09-03T10:18:01.329Z,91997.31
2018-09-03T10:20:32.141Z,91993.28
2018-09-03T10:23:03.012Z,91991.66
2018-09-03T10:25:33.952Z,91992.68
2018-09-03T10:28:04.985Z,91986.24
2018-09-03T10:30:35.900Z,91981.74
2018-09-03T10:33:06.724Z,91977.77
2018-09-03T10:35:37.576Z,91972.00
2018-09-03T10:38:08.450Z,91968.80
2018-09-03T10:40:39.842Z,91963.34
2018-09-03T10:43:11.484Z,91961.13
2018-09-03T10:45:45.507Z,91951.39
2018-09-03T10:48:17.576Z,91945.76
2018-09-03T10:50:48.401Z,91953.00
2018-09-03T10:53:19.187Z,91947.28
2018-09-03T10:55:50.038Z,91949.49
2018-09-03T10:58:20.892Z,91940.67
2018-09-03T11:00:52.344Z,91940.17
2018-09-03T11:03:23.159Z,91943.77
2018-09-03T11:05:54.045Z,91930.53
2018-09-03T11:08:24.834Z,91928.88
2018-09-03T11:10:55.701Z,91927.73
2018-09-03T11:13:26.485Z,91931.06
2018-09-03T11:15:57.276Z,91920.67
2018-09-03T11:18:29.289Z,91924.12
2018-09-03T11:21:00.126Z,91921.55
2018-09-03T11:23:31.109Z,91921.70
2018-09-03T11:26:01.996Z,91915.30
2018-09-03T11:28:33.611Z,91908.46
2018-09-03T11:31:04.501Z,91907.02
2018-09-03T11:33:35.311Z,91900.31
2018-09-03T11:36:06.188Z,91902.48
2018-09-03T11:38:37.061Z,91901.81
2018-09-03T11:41:07.933Z,91902.41
2018-09-03T11:43:39.412Z,91896.09
2018-09-03T11:46:10.263Z,91899.50
2018-09-03T11:48:41.029Z,91893.47
2018-09-03T11:51:11.856Z,91892.58
2018-09-03T11:53:42.677Z,91892.63
2018-09-03T11:56:13.616Z,91889.36
2018-09-03T11:58:44.541Z,91890.42
2018-09-03T12:01:15.386Z,91885.11
2018-09-03T12:03:46.189Z,91881.02
2018-09-03T12:06:17.665Z,91868.28
2018-09-03T12:08:48.432Z,91870.80
2018-09-03T12:11:19.275Z,91858.08
2018-09-03T12:13:50.606Z,91863.52
2018-09-03T12:16:24.931Z,91859.24
2018-09-03T12:18:57.510Z,91856.09
2018-09-03T12:21:28.363Z,91853.63
2018-09-03T12:23:59.757Z,91862.88
2018-09-03T12:26:30.707Z,91845.35
2018-09-03T12:29:01.601Z,91855.42
2018-09-03T12:31:32.425Z,91850.38
2018-09-03T12:34:04.968Z,91846.94
2018-09-03T12:36:35.797Z,91847.78
2018-09-03T12:39:09.493Z,91846.48
2018-09-03T12:41:40.493Z,91851.57
2018-09-03T12:44:13.818Z,91849.31
2018-09-03T12:46:44.640Z,91846.55
2018-09-03T12:49:15.835Z,91840.34
2018-09-03T12:51:46.678Z,91836.97
2018-09-03T12:54:17.662Z,91837.80
2018-09-03T12:56:48.537Z,91838.41
2018-09-03T12:59:19.441Z,91833.62
2018-09-03T13:01:50.333Z,91829.47
2018-09-03T13:04:21.498Z,91828.66
2018-09-03T13:06:53.022Z,91825.86
2018-09-03T13:09:23.807Z,91822.41
2018-09-03T13:19:08.839Z,91814.97
2018-09-03T13:21:39.663Z,91820.12
2018-09-03T13:24:10.618Z,91820.36
2018-09-03T13:26:41.669Z,91822.53
2018-09-03T13:29:12.476Z,91815.59
2018-09-03T13:31:43.275Z,91817.08
2018-09-03T13:34:14.362Z,91814.95
2018-09-03T13:36:45.263Z,91810.73
2018-09-03T13:39:16.145Z,91804.48
2018-09-03T13:41:46.924Z,91805.83
2018-09-03T13:44:17.763Z,91801.72
2018-09-03T13:46:48.668Z,91801.02
2018-09-03T13:49:20.546Z,91803.16
2018-09-03T13:51:51.380Z,91804.61
2018-09-03T13:54:22.244Z,91807.41
2018-09-03T13:56:53.060Z,91801.83
2018-09-03T13:59:23.942Z,91801.15
2018-09-03T14:01:54.745Z,91803.25
2018-09-03T14:04:26.707Z,91793.59
2018-09-03T14:06:58.355Z,91792.22
2018-09-03T14:09:29.427Z,91789.46
2018-09-03T14:12:00.403Z,91790.88
2018-09-03T14:14:31.460Z,91786.72
2018-09-03T14:17:02.490Z,91781.20
2018-09-03T14:19:33.842Z,91781.21
2018-09-03T14:22:05.714Z,91777.08
2018-09-03T14:24:37.884Z,91776.41
2018-09-03T14:27:08.882Z,91773.65
2018-09-03T14:29:39.707Z,91774.36
2018-09-03T14:32:10.495Z,91773.66
2018-09-03T14:34:41.372Z,91768.12
2018-09-03T14:37:12.161Z,91765.97
2018-09-03T14:39:44.104Z,91762.59
2018-09-03T14:42:14.892Z,91759.17
2018-09-03T14:44:45.786Z,91756.77
2018-09-03T14:47:16.561Z,91753.92
2018-09-03T14:49:47.535Z,91748.52
2018-09-03T14:52:18.313Z,91738.92
2018-09-03T14:54:49.248Z,91746.41
2018-09-03T14:57:20.696Z,91745.95
2018-09-03T14:59:52.147Z,91747.92
2018-09-03T15:02:22.944Z,91744.05
2018-09-03T15:04:54.006Z,91750.53
2018-09-03T15:07:24.790Z,91751.70
2018-09-03T15:09:55.631Z,91750.48
2018-09-03T15:12:29.164Z,91742.33
2018-09-03T15:15:00.044Z,91745.86
2018-09-03T15:17:31.316Z,91748.02
2018-09-03T15:20:03.337Z,91745.98
2018-09-03T15:22:34.665Z,91738.35
2018-09-03T15:25:05.925Z,91736.30
2018-09-03T15:27:36.702Z,91739.05
2018-09-03T15:30:08.025Z,91741.13
2018-09-03T15:32:38.815Z,91739.75
2018-09-03T15:35:09.877Z,91746.67
2018-09-03T15:37:40.861Z,91752.20
2018-09-03T15:40:12.848Z,91743.89
2018-09-03T15:42:43.686Z,91748.04
2018-09-03T15:45:15.090Z,91750.78
2018-09-03T15:47:45.969Z,91747.98
2018-09-03T15:50:16.882Z,91747.73
2018-09-03T15:52:47.720Z,91751.87
2018-09-03T15:55:18.659Z,91758.00
2018-09-03T15:57:50.156Z,91754.34
2018-09-03T16:00:21.002Z,91750.75
2018-09-03T16:02:52.214Z,91747.16
2018-09-03T16:05:24.735Z,91749.72
2018-09-03T16:07:55.536Z,91759.77
2018-09-03T16:10:26.384Z,91754.07
2018-09-03T16:12:57.321Z,91758.98
2018-09-03T16:15:28.276Z,91771.25
2018-09-03T16:17:59.181Z,91762.88
2018-09-03T16:20:30.312Z,91768.17
2018-09-03T16:23:01.089Z,91774.93
2018-09-03T16:25:31.918Z,91768.09
2018-09-03T16:28:03.380Z,91774.27
2018-09-03T16:30:34.584Z,91774.93
2018-09-03T16:33:05.630Z,91775.03
2018-09-03T16:35:36.520Z,91774.91
2018-09-03T16:38:08.292Z,91771.51
2018-09-03T16:40:39.273Z,91777.61
2018-09-03T16:43:14.861Z,91782.28
2018-09-03T16:45:50.838Z,91777.94
2018-09-03T16:48:26.616Z,91780.50
2018-09-03T16:51:02.673Z,91785.19
2018-09-03T16:53:38.328Z,91787.78
2018-09-03T16:56:14.124Z,91790.31
2018-09-03T16:58:49.995Z,91797.11
2018-09-03T17:01:27.426Z,91793.09
2018-09-03T17:04:03.482Z,91791.98
2018-09-03T17:06:39.513Z,91789.64
2018-09-03T17:09:15.469Z,91793.64
2018-09-03T17:11:51.363Z,91790.64
2018-09-03T17:14:27.228Z,91794.36
2018-09-03T17:16:58.025Z,91791.62
2018-09-03T17:19:34.063Z,91792.52
2018-09-03T17:22:09.864Z,91787.40
2018-09-03T17:24:45.568Z,91787.84
2018-09-03T17:27:21.533Z,91786.20
2018-09-03T17:29:57.604Z,91790.75
2018-09-03T17:32:34.233Z,91789.98
2018-09-03T17:35:09.949Z,91788.95
2018-09-03T17:37:47.059Z,91794.36
2018-09-03T17:40:24.094Z,91801.19
2018-09-03T17:43:05.759Z,91802.31
2018-09-03T17:45:41.564Z,91806.25
2018-09-03T17:48:18.696Z,91803.28
2018-09-03T17:50:54.636Z,91809.20
2018-09-03T17:53:30.550Z,91814.45
2018-09-03T17:56:06.418Z,91814.05
2018-09-03T17:58:42.205Z,91813.89
2018-09-03T18:01:18.318Z,91818.88
2018-09-03T18:03:54.888Z,91818.77
2018-09-03T18:06:30.579Z,91821.73
2018-09-03T18:09:07.519Z,91824.58
2018-09-03T18:11:43.397Z,91827.90
2018-09-03T18:14:19.289Z,91825.36
2018-09-03T18:16:56.186Z,91824.61
2018-09-03T18:19:32.259Z,91828.41
2018-09-03T18:22:08.221Z,91837.58
2018-09-03T18:24:44.321Z,91837.62
2018-09-03T18:27:20.917Z,91849.55
2018-09-03T18:29:57.202Z,91848.47
2018-09-03T18:32:33.020Z,91848.70
2018-09-03T18:35:08.874Z,91855.74
2018-09-03T18:37:44.629Z,91858.92
2018-09-03T18:40:20.605Z,91858.69
2018-09-03T18:42:56.353Z,91861.34
2018-09-03T18:45:32.854Z,91858.34
2018-09-03T18:48:08.764Z,91855.23
2018-09-03T18:50:44.825Z,91856.73
2018-09-03T18:53:20.674Z,91859.75
2018-09-03T18:55:56.674Z,91858.73
2018-09-03T18:58:32.497Z,91861.34
2018-09-03T19:01:08.380Z,91856.66
2018-09-03T19:03:44.157Z,91860.70
2018-09-03T19:06:19.857Z,91861.44
2018-09-03T19:08:55.660Z,91868.81
2018-09-03T19:11:31.611Z,91861.65
2018-09-03T19:14:07.392Z,91863.44
2018-09-03T19:16:43.838Z,91858.91
2018-09-03T19:19:19.797Z,91860.41
2018-09-03T19:21:55.725Z,91854.91
2018-09-03T19:24:31.832Z,91856.41
2018-09-03T19:27:08.972Z,91850.97
2018-09-03T19:29:49.972Z,91848.39
2018-09-03T19:32:26.451Z,91840.42
2018-09-03T19:35:03.304Z,91845.53
2018-09-03T19:37:39.185Z,91842.19
2018-09-03T19:40:15.540Z,91839.42
2018-09-03T19:42:51.520Z,91836.66
2018-09-03T19:45:27.505Z,91832.34
2018-09-03T19:48:03.979Z,91830.80
2018-09-03T19:50:39.716Z,91834.80
2018-09-03T19:53:15.829Z,91839.07
2018-09-03T19:55:51.853Z,91843.80
2018-09-03T19:58:27.795Z,91844.30
2018-09-03T20:01:03.911Z,91841.33
2018-09-03T20:03:39.766Z,91844.53
2018-09-03T20:06:15.626Z,91834.42
2018-09-03T20:08:51.813Z,91834.18
2018-09-03T20:11:27.469Z,91837.82
2018-09-03T20:14:03.354Z,91832.89
2018-09-03T20:16:39.684Z,91826.30
2018-09-03T20:19:15.559Z,91821.97
2018-09-03T20:21:51.473Z,91825.03
2018-09-03T20:24:27.445Z,91825.70
2018-09-03T20:27:03.183Z,91823.30
2018-09-03T20:29:39.284Z,91820.31
2018-09-03T20:32:15.150Z,91821.38
2018-09-03T20:34:51.349Z,91819.53
2018-09-03T20:37:27.381Z,91820.83
2018-09-03T20:40:03.649Z,91824.41
2018-09-03T20:42:39.557Z,91817.29
2018-09-03T20:45:16.069Z,91822.30
2018-09-03T20:47:52.250Z,91820.63
2018-09-03T20:50:28.647Z,91822.13
2018-09-03T20:53:04.519Z,91825.66
2018-09-03T20:55:40.472Z,91845.71
2018-09-03T20:58:16.858Z,91850.46
2018-09-03T21:00:52.938Z,91848.40
2018-09-03T21:03:28.701Z,91849.45
2018-09-03T21:06:05.239Z,91844.66
2018-09-03T21:08:41.539Z,91848.56
2018-09-03T21:11:17.496Z,91849.18
2018-09-03T21:13:53.298Z,91859.69
2018-09-03T21:16:29.032Z,91857.05
2018-09-03T21:19:04.921Z,91857.12
2018-09-03T21:21:40.803Z,91856.50
2018-09-03T21:24:16.701Z,91858.48
2018-09-03T21:26:53.513Z,91866.75
2018-09-03T21:29:29.403Z,91856.84
2018-09-03T21:32:05.731Z,91860.66
2018-09-03T21:34:41.787Z,91859.22
2018-09-03T21:37:17.462Z,91852.75
2018-09-03T21:39:54.124Z,91849.55
2018-09-03T21:42:30.027Z,91859.45
2018-09-03T21:45:06.095Z,91855.91
2018-09-03T21:47:42.386Z,91857.23
2018-09-03T21:50:18.272Z,91851.51
2018-09-03T21:52:54.115Z,91854.74
2018-09-03T21:55:30.792Z,91846.91
2018-09-03T21:58:06.608Z,91844.06
2018-09-03T22:00:44.311Z,91848.20
2018-09-03T22:03:20.262Z,91850.58
2018-09-03T22:05:56.259Z,91844.94
2018-09-03T22:08:32.550Z,91845.83
2018-09-03T22:11:08.619Z,91847.07
2018-09-03T22:13:44.996Z,91844.06
2018-09-03T22:16:20.864Z,91843.65
2018-09-03T22:18:56.854Z,91835.12
2018-09-03T22:21:32.600Z,91832.31
2018-09-03T22:24:08.565Z,91827.80
2018-09-03T22:26:44.376Z,91831.23
2018-09-03T22:29:23.175Z,91829.48
2018-09-03T22:31:59.473Z,91829.40
2018-09-03T22:34:35.872Z,91826.55
2018-09-03T22:37:11.746Z,91824.45
2018-09-03T22:39:47.564Z,91820.16
2018-09-03T22:42:26.730Z,91815.02
2018-09-03T22:45:03.068Z,91819.82
2018-09-03T22:47:39.243Z,91819.05
2018-09-03T22:50:15.036Z,91824.66
2018-09-03T22:52:50.781Z,91822.67
2018-09-03T22:55:27.547Z,91812.98
2018-09-03T22:58:03.388Z,91807.91
2018-09-03T23:00:39.089Z,91807.40
2018-09-03T23:03:14.973Z,91810.87
2018-09-03T23:05:50.787Z,91811.55
2018-09-03T23:08:27.350Z,91815.28
2018-09-03T23:11:03.237Z,91822.27
2018-09-03T23:13:39.044Z,91821.09
2018-09-03T23:16:15.049Z,91822.00
2018-09-03T23:18:51.126Z,91814.47
2018-09-03T23:21:27.023Z,91823.91
2018-09-03T23:24:02.957Z,91812.58
2018-09-03T23:26:38.769Z,91810.81
2018-09-03T23:29:15.626Z,91803.95
2018-09-03T23:31:51.418Z,91800.40
2018-09-03T23:34:27.293Z,91792.72
2018-09-03T23:37:03.423Z,91799.31
2018-09-03T23:39:39.296Z,91798.98
2018-09-03T23:42:15.093Z,91791.77
2018-09-03T23:44:50.904Z,91791.75
2018-09-03T23:47:26.707Z,91792.70
2018-09-03T23:50:02.521Z,91790.65
2018-09-03T23:52:38.503Z,91787.84
2018-09-03T23:55:14.292Z,91788.50
2018-09-03T23:57:50.271Z,91781.78
